Airport View

Enter AWOS ICAO identifier for current METAR.

ex. KFNL

KDEH 300510Z AUTO 35003KT 10SM OVC036 00/M02 A3013 RMK AO2

30 Oct 2020 05:14

Frequency: 120.925

Phone: 563-382-2990

Other Area AWOS: KFKA - KPDC - KOLZ - KCCY

TAF KLSE 292335Z 3000/3024 34004KT P6SM BKN040 FM301300 VRB03KT P6SM SCT050